createdAt,value
2022-08-04T00:00:11.613Z,3.58
2022-08-04T00:03:15.303Z,3.33
2022-08-04T00:05:48.263Z,2.83
2022-08-04T00:08:14.503Z,3.08
2022-08-04T00:10:45.152Z,3.45
2022-08-04T00:13:11.657Z,2.90
2022-08-04T00:15:38.244Z,3.05
2022-08-04T00:18:05.478Z,3.00
2022-08-04T00:20:36.918Z,2.67
2022-08-04T00:23:03.610Z,3.30
2022-08-04T00:27:56.073Z,2.92
2022-08-04T00:30:22.390Z,2.75
2022-08-04T00:32:49.245Z,3.00
2022-08-04T00:35:15.961Z,2.92
2022-08-04T00:40:37.846Z,2.95
2022-08-04T00:43:14.979Z,3.20
2022-08-04T00:46:10.742Z,3.40
2022-08-04T00:48:47.101Z,2.88
2022-08-04T00:51:13.348Z,3.25
2022-08-04T00:53:49.894Z,2.88
2022-08-04T00:56:35.679Z,2.80
2022-08-04T00:59:20.473Z,3.10
2022-08-04T01:01:56.522Z,3.08
2022-08-04T01:04:49.484Z,3.08
2022-08-04T01:07:28.075Z,2.85
2022-08-04T01:10:02.486Z,3.22
2022-08-04T01:12:28.763Z,3.53
2022-08-04T01:15:06.851Z,3.40
2022-08-04T01:17:35.840Z,3.50
2022-08-04T01:20:08.568Z,3.75
2022-08-04T01:22:34.837Z,3.63
2022-08-04T01:25:08.321Z,2.88
2022-08-04T01:27:53.353Z,3.70
2022-08-04T01:30:20.800Z,3.42
2022-08-04T01:33:13.362Z,3.38
2022-08-04T01:35:51.661Z,3.17
2022-08-04T01:38:24.047Z,3.53
2022-08-04T01:40:55.105Z,3.33
2022-08-04T01:43:21.499Z,3.70
2022-08-04T01:45:51.727Z,3.60
2022-08-04T01:48:22.869Z,4.28
2022-08-04T01:50:52.961Z,3.38
2022-08-04T01:53:20.141Z,2.95
2022-08-04T01:55:55.339Z,3.25
2022-08-04T01:58:23.379Z,4.00
2022-08-04T02:01:08.373Z,3.08
2022-08-04T02:04:21.079Z,4.20
2022-08-04T02:06:28.430Z,3.50
2022-08-04T02:08:57.738Z,3.70
2022-08-04T02:11:24.193Z,3.25
2022-08-04T02:14:09.268Z,3.80
2022-08-04T02:16:52.802Z,3.88
2022-08-04T02:19:19.246Z,3.22
2022-08-04T02:21:48.646Z,4.53
2022-08-04T02:24:16.340Z,2.90
2022-08-04T02:26:43.123Z,3.60
2022-08-04T02:31:39.435Z,3.58
2022-08-04T02:34:07.497Z,3.83
2022-08-04T02:36:38.539Z,3.63
2022-08-04T02:39:05.678Z,3.28
2022-08-04T02:41:32.365Z,3.15
2022-08-04T02:44:00.681Z,3.03
2022-08-04T02:46:27.637Z,4.00
2022-08-04T02:48:54.383Z,3.63
2022-08-04T02:51:29.272Z,3.63
2022-08-04T02:53:56.880Z,3.60
2022-08-04T02:56:24.034Z,3.53
2022-08-04T02:58:56.341Z,3.40
2022-08-04T03:01:23.444Z,3.47
2022-08-04T03:04:06.156Z,3.75
2022-08-04T03:06:35.225Z,3.65
2022-08-04T03:09:18.282Z,3.97
2022-08-04T03:11:47.346Z,3.90
2022-08-04T03:14:23.974Z,4.30
2022-08-04T03:17:00.659Z,3.88
2022-08-04T03:19:52.841Z,3.40
2022-08-04T03:22:28.733Z,3.53
2022-08-04T03:24:57.989Z,3.20
2022-08-04T03:27:36.432Z,4.10
2022-08-04T03:30:06.908Z,3.50
2022-08-04T03:32:49.747Z,3.65
2022-08-04T03:35:24.750Z,3.65
2022-08-04T03:38:09.953Z,3.28
2022-08-04T03:40:45.661Z,3.22
2022-08-04T03:43:58.045Z,3.63
2022-08-04T03:46:35.805Z,4.05
2022-08-04T03:49:10.394Z,4.30
2022-08-04T03:51:59.741Z,3.80
2022-08-04T03:54:46.268Z,3.28
2022-08-04T03:57:15.253Z,3.70
2022-08-04T03:59:49.201Z,3.63
2022-08-04T04:02:31.828Z,3.42
2022-08-04T04:05:16.166Z,3.67
2022-08-04T04:07:42.494Z,3.95
2022-08-04T04:10:16.691Z,3.95
2022-08-04T04:13:07.671Z,3.50
2022-08-04T04:15:50.780Z,3.63
2022-08-04T04:18:29.304Z,3.50
2022-08-04T04:20:55.562Z,3.20
2022-08-04T04:23:22.812Z,3.60
2022-08-04T04:25:52.076Z,3.90
2022-08-04T04:28:45.594Z,3.60
2022-08-04T04:31:19.375Z,4.47
2022-08-04T04:33:48.909Z,4.50
2022-08-04T04:36:15.168Z,4.10
2022-08-04T04:39:04.673Z,4.93
2022-08-04T04:41:49.227Z,4.15
2022-08-04T04:44:33.582Z,3.95
2022-08-04T04:48:09.865Z,3.95
2022-08-04T04:50:40.864Z,4.82
2022-08-04T04:53:20.636Z,3.72
2022-08-04T04:56:13.148Z,3.75
2022-08-04T04:58:41.409Z,3.45
2022-08-04T05:01:13.772Z,3.63
2022-08-04T05:03:48.743Z,3.28
2022-08-04T05:06:15.233Z,3.80
2022-08-04T05:08:50.045Z,3.92
2022-08-04T05:11:38.986Z,3.88
2022-08-04T05:14:37.970Z,3.97
2022-08-04T05:16:59.465Z,5.18
2022-08-04T05:19:33.933Z,4.60
2022-08-04T05:22:03.709Z,4.30
2022-08-04T05:24:35.182Z,4.90
2022-08-04T05:27:03.528Z,4.03
2022-08-04T05:29:36.421Z,4.65
2022-08-04T05:32:06.728Z,4.32
2022-08-04T05:34:39.303Z,4.43
2022-08-04T05:37:09.023Z,3.80
2022-08-04T05:39:47.321Z,4.22
2022-08-04T05:42:14.234Z,3.72
2022-08-04T05:47:07.677Z,3.70
2022-08-04T05:52:01.431Z,3.35
2022-08-04T05:54:28.520Z,3.03
2022-08-04T05:56:56.109Z,2.90
2022-08-04T05:59:25.608Z,3.17
2022-08-04T06:01:56.137Z,3.50
2022-08-04T06:04:26.892Z,3.30
2022-08-04T06:06:53.725Z,3.67
2022-08-04T06:09:20.044Z,3.63
2022-08-04T06:12:03.492Z,3.38
2022-08-04T06:14:32.794Z,4.13
2022-08-04T06:17:00.026Z,3.42
2022-08-04T06:20:03.530Z,3.25
2022-08-04T06:22:16.242Z,3.75
2022-08-04T06:24:44.968Z,3.63
2022-08-04T06:27:12.054Z,3.42
2022-08-04T06:29:51.301Z,3.75
2022-08-04T06:32:33.692Z,3.15
2022-08-04T06:35:03.104Z,3.30
2022-08-04T06:37:42.606Z,3.88
2022-08-04T06:40:29.461Z,3.60
2022-08-04T06:42:56.881Z,4.07
2022-08-04T06:45:24.356Z,3.35
2022-08-04T06:47:50.977Z,3.60
2022-08-04T06:53:04.316Z,3.85
2022-08-04T06:55:31.369Z,3.60
2022-08-04T06:58:02.784Z,3.85
2022-08-04T07:00:30.611Z,4.57
2022-08-04T07:02:57.884Z,3.40
2022-08-04T07:05:24.303Z,3.13
2022-08-04T07:07:57.337Z,3.95
2022-08-04T07:10:25.377Z,3.40
2022-08-04T07:12:51.711Z,4.10
2022-08-04T07:15:20.737Z,3.47
2022-08-04T07:17:49.565Z,3.60
2022-08-04T07:20:16.038Z,4.63
2022-08-04T07:23:01.703Z,3.42
2022-08-04T07:26:00.827Z,3.38
2022-08-04T07:28:15.045Z,3.65
2022-08-04T07:33:07.907Z,3.60
2022-08-04T07:35:34.605Z,4.10
2022-08-04T07:38:20.880Z,3.90
2022-08-04T07:40:53.966Z,3.30
2022-08-04T07:43:20.336Z,3.30
2022-08-04T07:45:46.667Z,3.53
2022-08-04T07:48:14.522Z,3.92
2022-08-04T07:50:42.661Z,3.60
2022-08-04T07:53:54.850Z,3.80
2022-08-04T07:55:55.825Z,4.28
2022-08-04T07:58:22.129Z,3.30
2022-08-04T08:00:48.883Z,3.45
2022-08-04T08:03:15.397Z,3.72
2022-08-04T08:08:27.905Z,3.50
2022-08-04T08:10:54.188Z,4.25
2022-08-04T08:13:20.666Z,3.70
2022-08-04T08:15:47.373Z,3.67
2022-08-04T08:18:13.658Z,3.38
2022-08-04T08:20:40.082Z,3.45
2022-08-04T08:23:07.986Z,3.75
2022-08-04T08:25:34.524Z,3.20
2022-08-04T08:30:31.557Z,3.10
2022-08-04T08:32:59.707Z,2.90
2022-08-04T08:35:27.906Z,3.88
2022-08-04T08:37:59.419Z,3.20
2022-08-04T08:40:40.490Z,3.40
2022-08-04T08:44:03.713Z,3.65
2022-08-04T08:46:38.887Z,2.67
2022-08-04T08:49:07.820Z,3.05
2022-08-04T08:51:37.066Z,2.70
2022-08-04T08:54:03.309Z,2.75
2022-08-04T08:56:32.732Z,2.80
2022-08-04T08:59:06.400Z,2.95
2022-08-04T09:01:54.041Z,2.80
2022-08-04T09:04:23.947Z,2.85
2022-08-04T09:07:10.345Z,2.95
2022-08-04T09:09:36.586Z,2.05
2022-08-04T09:14:35.022Z,2.55
2022-08-04T09:17:03.211Z,2.30
2022-08-04T09:19:39.552Z,2.45
2022-08-04T09:22:12.857Z,2.22
2022-08-04T09:24:39.319Z,2.35
2022-08-04T09:27:09.827Z,2.28
2022-08-04T09:29:36.072Z,2.33
2022-08-04T09:32:17.748Z,2.13
2022-08-04T09:35:13.349Z,2.00
2022-08-04T09:38:17.566Z,1.83
2022-08-04T09:40:55.213Z,1.83
2022-08-04T09:43:59.345Z,2.40
2022-08-04T09:46:29.179Z,1.83
2022-08-04T09:48:59.828Z,2.03
2022-08-04T09:51:58.741Z,2.00
2022-08-04T09:54:44.573Z,1.92
2022-08-04T09:57:15.312Z,2.13
2022-08-04T09:59:44.732Z,2.03
2022-08-04T10:02:13.226Z,1.75
2022-08-04T10:04:40.136Z,1.90
2022-08-04T10:07:12.280Z,2.35
2022-08-04T10:09:50.668Z,2.20
2022-08-04T10:12:36.028Z,2.03
2022-08-04T10:15:15.092Z,2.63
2022-08-04T10:18:00.303Z,2.63
2022-08-04T10:20:44.296Z,2.50
2022-08-04T10:26:07.620Z,2.17
2022-08-04T10:28:45.704Z,2.92
2022-08-04T10:31:15.863Z,2.10
2022-08-04T10:33:50.068Z,1.75
2022-08-04T10:36:17.936Z,1.73
2022-08-04T10:38:56.450Z,1.77
2022-08-04T10:41:22.734Z,1.80
2022-08-04T10:43:51.957Z,2.13
2022-08-04T10:46:21.335Z,2.00
2022-08-04T10:48:59.939Z,2.15
2022-08-04T10:51:58.876Z,2.28
2022-08-04T10:54:37.439Z,1.77
2022-08-04T10:57:13.379Z,2.03
2022-08-04T11:00:03.597Z,2.10
2022-08-04T11:02:39.923Z,2.33
2022-08-04T11:05:24.521Z,1.50
2022-08-04T11:07:52.323Z,2.17
2022-08-04T11:10:21.661Z,1.65
2022-08-04T11:12:52.682Z,1.90
2022-08-04T11:15:21.524Z,2.05
2022-08-04T11:17:51.759Z,1.58
2022-08-04T11:20:36.552Z,1.30
2022-08-04T11:23:05.897Z,1.60
2022-08-04T11:25:35.855Z,1.30
2022-08-04T11:28:02.124Z,1.35
2022-08-04T11:30:48.685Z,1.25
2022-08-04T11:33:15.230Z,2.17
2022-08-04T11:35:44.884Z,1.70
2022-08-04T11:38:22.025Z,1.90
2022-08-04T11:40:55.788Z,2.13
2022-08-04T11:44:00.669Z,1.75
2022-08-04T11:46:32.262Z,1.70
2022-08-04T11:49:05.593Z,1.77
2022-08-04T11:51:32.713Z,1.63
2022-08-04T11:53:59.508Z,1.35
2022-08-04T11:56:36.490Z,2.78
2022-08-04T11:59:05.080Z,1.95
2022-08-04T12:01:34.761Z,1.67
2022-08-04T12:04:04.181Z,1.48
2022-08-04T12:06:33.748Z,1.30
2022-08-04T12:09:28.624Z,1.40
2022-08-04T12:11:54.845Z,1.23
2022-08-04T12:14:27.109Z,1.55
2022-08-04T12:17:03.868Z,1.38
2022-08-04T12:19:46.186Z,1.50
2022-08-04T12:22:25.039Z,1.50
2022-08-04T12:25:09.501Z,1.27
2022-08-04T12:27:41.963Z,1.23
2022-08-04T12:31:00.107Z,1.33
2022-08-04T12:33:00.426Z,1.35
2022-08-04T12:35:29.738Z,1.50
2022-08-04T12:38:02.661Z,1.50
2022-08-04T12:40:40.615Z,0.93
2022-08-04T12:43:22.640Z,1.20
2022-08-04T12:45:50.531Z,1.10
2022-08-04T12:48:21.281Z,1.10
2022-08-04T12:50:52.240Z,1.05
2022-08-04T12:53:23.311Z,1.02
2022-08-04T12:56:01.813Z,1.30
2022-08-04T12:58:42.306Z,1.33
2022-08-04T13:02:10.733Z,1.27
2022-08-04T13:04:06.278Z,1.33
2022-08-04T13:06:34.541Z,1.17
2022-08-04T13:09:09.373Z,1.15
2022-08-04T13:11:43.748Z,1.20
2022-08-04T13:14:26.524Z,1.40
2022-08-04T13:16:59.331Z,1.33
2022-08-04T13:19:25.871Z,1.02
2022-08-04T13:22:02.828Z,1.00
2022-08-04T13:27:03.904Z,1.20
2022-08-04T13:29:59.231Z,1.08
2022-08-04T13:32:28.605Z,1.10
2022-08-04T13:34:55.440Z,1.23
2022-08-04T13:37:25.253Z,1.17
2022-08-04T13:39:55.899Z,1.30
2022-08-04T13:42:23.935Z,1.23
2022-08-04T13:44:53.352Z,1.23
2022-08-04T13:47:20.706Z,1.10
2022-08-04T13:50:10.859Z,1.10
2022-08-04T13:52:39.140Z,1.30
2022-08-04T13:55:06.776Z,1.20
2022-08-04T13:57:35.247Z,1.42
2022-08-04T14:00:05.277Z,1.10
2022-08-04T14:02:39.118Z,0.77
2022-08-04T14:05:18.035Z,1.02
2022-08-04T14:07:46.569Z,0.95
2022-08-04T14:10:13.221Z,1.40
2022-08-04T14:12:46.794Z,1.23
2022-08-04T14:16:02.476Z,1.00
2022-08-04T14:18:24.620Z,1.13
2022-08-04T14:21:10.594Z,1.10
2022-08-04T14:23:47.657Z,0.90
2022-08-04T14:26:15.711Z,1.08
2022-08-04T14:29:25.769Z,1.10
2022-08-04T14:31:31.015Z,1.02
2022-08-04T14:34:01.918Z,1.10
2022-08-04T14:37:13.372Z,1.33
2022-08-04T14:39:39.342Z,1.00
2022-08-04T14:42:06.226Z,0.90
2022-08-04T14:44:51.570Z,1.00
2022-08-04T14:47:17.843Z,1.02
2022-08-04T14:50:04.364Z,1.10
2022-08-04T14:52:30.661Z,1.20
2022-08-04T14:54:56.956Z,1.08
2022-08-04T14:57:23.389Z,1.20
2022-08-04T15:00:00.784Z,1.20
2022-08-04T15:02:29.530Z,1.23
2022-08-04T15:04:56.518Z,1.13
2022-08-04T15:07:22.834Z,1.02
2022-08-04T15:09:49.111Z,1.10
2022-08-04T15:12:15.455Z,1.00
2022-08-04T15:14:42.247Z,1.10
2022-08-04T15:17:29.492Z,1.42
2022-08-04T15:19:56.129Z,1.38
2022-08-04T15:22:22.591Z,1.10
2022-08-04T15:24:54.756Z,1.35
2022-08-04T15:27:23.641Z,1.20
2022-08-04T15:29:59.013Z,1.20
2022-08-04T15:32:29.436Z,1.55
2022-08-04T15:35:01.195Z,1.40
2022-08-04T15:37:29.491Z,1.13
2022-08-04T15:39:58.533Z,1.10
2022-08-04T15:42:30.862Z,1.15
2022-08-04T15:44:58.706Z,1.45
2022-08-04T15:47:25.286Z,1.15
2022-08-04T15:50:11.181Z,1.15
2022-08-04T15:55:22.594Z,1.05
2022-08-04T15:58:01.940Z,1.40
2022-08-04T16:00:28.562Z,1.05
2022-08-04T16:02:55.805Z,1.00
2022-08-04T16:05:22.357Z,1.13
2022-08-04T16:07:58.258Z,1.10
2022-08-04T16:10:30.712Z,1.00
2022-08-04T16:12:58.334Z,1.00
2022-08-04T16:15:41.597Z,1.38
2022-08-04T16:18:14.199Z,1.08
2022-08-04T16:20:54.583Z,1.10
2022-08-04T16:23:53.678Z,1.20
2022-08-04T16:26:37.953Z,1.02
2022-08-04T16:29:23.604Z,1.02
2022-08-04T16:32:05.563Z,1.10
2022-08-04T16:34:50.114Z,0.98
2022-08-04T16:37:19.477Z,1.60
2022-08-04T16:39:50.852Z,0.80
2022-08-04T16:42:31.299Z,1.38
2022-08-04T16:45:02.073Z,1.00
2022-08-04T16:47:47.154Z,1.40
2022-08-04T16:50:17.290Z,1.48
2022-08-04T16:52:53.599Z,1.20
2022-08-04T16:55:20.771Z,1.38
2022-08-04T16:57:47.396Z,1.20
2022-08-04T17:00:14.547Z,1.10
2022-08-04T17:02:41.217Z,2.13
2022-08-04T17:05:39.575Z,1.90
2022-08-04T17:08:28.593Z,3.60
2022-08-04T17:10:53.509Z,4.20
2022-08-04T17:14:01.957Z,5.90
2022-08-04T17:16:18.912Z,4.65
2022-08-04T17:18:46.657Z,4.60
2022-08-04T17:21:15.050Z,4.70
2022-08-04T17:24:13.117Z,4.78
2022-08-04T17:26:40.173Z,6.38
2022-08-04T17:29:08.341Z,5.00
2022-08-04T17:31:35.842Z,6.28
2022-08-04T17:34:11.062Z,4.97
2022-08-04T17:36:42.051Z,5.75
2022-08-04T17:39:17.048Z,5.32
2022-08-04T17:41:48.729Z,4.95
2022-08-04T17:44:15.682Z,5.05
2022-08-04T17:46:48.263Z,5.43
2022-08-04T17:49:18.138Z,5.65
2022-08-04T17:52:04.001Z,3.80
2022-08-04T17:54:37.293Z,6.72
2022-08-04T17:57:20.093Z,5.57
2022-08-04T17:59:56.667Z,5.28
2022-08-04T18:02:31.879Z,6.10
2022-08-04T18:05:06.758Z,5.00
2022-08-04T18:08:34.769Z,6.95
2022-08-04T18:10:44.453Z,7.00
2022-08-04T18:13:23.731Z,5.60
2022-08-04T18:15:51.081Z,5.03
2022-08-04T18:18:23.642Z,7.32
2022-08-04T18:20:50.409Z,5.65
2022-08-04T18:23:16.986Z,6.80
2022-08-04T18:25:51.750Z,5.40
2022-08-04T18:28:26.535Z,7.43
2022-08-04T18:30:54.779Z,4.85
2022-08-04T18:33:40.575Z,5.18
2022-08-04T18:36:33.282Z,5.95
2022-08-04T18:38:58.699Z,5.57
2022-08-04T18:41:26.551Z,5.32
2022-08-04T18:43:55.519Z,4.45
2022-08-04T18:46:22.904Z,5.38
2022-08-04T18:48:53.578Z,5.00
2022-08-04T18:51:30.693Z,5.60
2022-08-04T18:53:58.874Z,4.40
2022-08-04T18:56:29.831Z,6.18
2022-08-04T18:59:00.014Z,5.53
2022-08-04T19:01:29.916Z,5.78
2022-08-04T19:03:57.815Z,5.63
2022-08-04T19:06:25.795Z,5.82
2022-08-04T19:08:52.478Z,4.22
2022-08-04T19:11:54.404Z,5.40
2022-08-04T19:14:05.669Z,4.45
2022-08-04T19:16:32.884Z,6.22
2022-08-04T19:19:02.801Z,4.85
2022-08-04T19:22:00.646Z,7.82
2022-08-04T19:24:32.939Z,6.55
2022-08-04T19:27:07.127Z,6.15
2022-08-04T19:29:37.675Z,7.75
2022-08-04T19:32:04.924Z,6.88
2022-08-04T19:37:09.442Z,5.80
2022-08-04T19:39:40.596Z,4.45
2022-08-04T19:42:06.966Z,5.70
2022-08-04T19:44:33.686Z,5.50
2022-08-04T19:50:05.345Z,5.85
2022-08-04T19:52:13.145Z,4.55
2022-08-04T19:57:08.937Z,6.28
2022-08-04T19:59:35.418Z,6.45
2022-08-04T20:04:27.989Z,7.75
2022-08-04T20:06:57.682Z,5.30
2022-08-04T20:11:56.814Z,6.10
2022-08-04T20:14:32.466Z,6.03
2022-08-04T20:17:00.653Z,6.28
2022-08-04T20:19:27.065Z,6.03
2022-08-04T20:21:56.377Z,6.75
2022-08-04T20:24:41.649Z,9.43
2022-08-04T20:27:15.199Z,5.90
2022-08-04T20:29:43.298Z,7.07
2022-08-04T20:32:12.642Z,5.80
2022-08-04T20:34:41.623Z,6.55
2022-08-04T20:39:34.221Z,6.75
2022-08-04T20:44:26.807Z,5.88
2022-08-04T20:49:19.430Z,6.43
2022-08-04T20:51:46.167Z,5.68
2022-08-04T20:54:26.506Z,6.03
2022-08-04T20:56:53.130Z,5.32
2022-08-04T20:59:20.410Z,5.35
2022-08-04T21:01:49.449Z,6.22
2022-08-04T21:04:31.342Z,5.85
2022-08-04T21:07:02.006Z,5.78
2022-08-04T21:09:38.032Z,6.28
2022-08-04T21:12:09.691Z,5.05
2022-08-04T21:14:36.221Z,6.50
2022-08-04T21:17:03.965Z,5.00
2022-08-04T21:19:33.620Z,6.22
2022-08-04T21:22:04.730Z,4.43
2022-08-04T21:24:31.029Z,5.90
2022-08-04T21:26:57.351Z,6.00
2022-08-04T21:29:34.969Z,6.68
2022-08-04T21:32:02.165Z,4.95
2022-08-04T21:34:36.753Z,5.75
2022-08-04T21:37:04.927Z,4.25
2022-08-04T21:42:27.971Z,4.65
2022-08-04T21:44:45.230Z,5.75
2022-08-04T21:47:16.941Z,5.25
2022-08-04T21:49:56.317Z,5.53
2022-08-04T21:52:23.769Z,5.63
2022-08-04T21:57:21.482Z,4.35
2022-08-04T21:59:51.529Z,3.85
2022-08-04T22:04:44.261Z,7.63
2022-08-04T22:09:41.014Z,5.90
2022-08-04T22:12:10.331Z,3.20
2022-08-04T22:14:39.412Z,2.47
2022-08-04T22:17:05.731Z,2.45
2022-08-04T22:19:49.779Z,2.40
2022-08-04T22:22:26.157Z,2.30
2022-08-04T22:24:53.583Z,2.45
2022-08-04T22:27:55.191Z,3.28
2022-08-04T22:30:22.747Z,4.20
2022-08-04T22:32:50.358Z,4.93
2022-08-04T22:35:36.442Z,2.42
2022-08-04T22:38:06.568Z,2.78
2022-08-04T22:40:47.551Z,2.50
2022-08-04T22:43:32.780Z,1.95
2022-08-04T22:46:01.869Z,2.60
2022-08-04T22:48:32.073Z,2.47
2022-08-04T22:50:58.694Z,2.63
2022-08-04T22:56:07.162Z,2.60
2022-08-04T22:58:36.899Z,2.25
2022-08-04T23:01:06.853Z,2.40
2022-08-04T23:03:37.971Z,2.22
2022-08-04T23:06:06.307Z,2.30
2022-08-04T23:08:33.583Z,2.30
2022-08-04T23:11:03.564Z,2.03
2022-08-04T23:13:31.709Z,2.92
2022-08-04T23:15:58.137Z,2.75
2022-08-04T23:18:24.396Z,2.47
2022-08-04T23:20:53.134Z,2.58
2022-08-04T23:23:20.110Z,2.70
2022-08-04T23:26:07.541Z,2.28
2022-08-04T23:28:32.699Z,2.05
2022-08-04T23:30:58.964Z,2.33
2022-08-04T23:33:25.281Z,2.15
2022-08-04T23:36:11.939Z,2.15
2022-08-04T23:38:38.389Z,2.67
2022-08-04T23:41:13.441Z,1.75
2022-08-04T23:43:49.566Z,2.72
2022-08-04T23:46:22.333Z,2.53
2022-08-04T23:51:15.723Z,2.53
2022-08-04T23:54:02.427Z,2.22
2022-08-04T23:56:29.293Z,2.17
2022-08-04T23:58:55.858Z,2.17
